Time,TemperatureF,DewpointF,PressureIn,WindDirection,WindDirectionDegrees,WindSpeedMPH,WindSpeedGustMPH,Humidity,HourlyPrecipIn,Conditions,Clouds,dailyrainin,SoftwareType,DateUTC
2013-09-25 00:12:00,45.0,40.0,29.91,ENE,75,0.0,0.0,81,0.00,,,0.00,,2013-09-25 05:12:00,
2013-09-25 00:44:00,44.0,39.0,29.92,ENE,75,0.0,0.0,83,0.00,,,0.00,,2013-09-25 05:44:00,
2013-09-25 01:13:00,44.0,40.0,29.89,ENE,75,0.0,0.0,85,0.00,,,0.00,,2013-09-25 06:13:00,
2013-09-25 01:42:00,43.0,39.0,29.90,ENE,75,0.0,0.0,86,0.00,,,0.00,,2013-09-25 06:42:00,
2013-09-25 02:12:00,42.0,38.0,29.89,ENE,75,0.0,1.0,87,0.00,,,0.00,,2013-09-25 07:12:00,
2013-09-25 02:42:00,42.0,38.0,29.88,ENE,75,0.0,0.0,87,0.00,,,0.00,,2013-09-25 07:42:00,
2013-09-25 03:12:00,41.0,38.0,29.87,ENE,75,0.0,0.0,88,0.00,,,0.00,,2013-09-25 08:12:00,
2013-09-25 03:42:00,41.0,38.0,29.87,ENE,76,1.0,3.0,89,0.00,,,0.00,,2013-09-25 08:42:00,
2013-09-25 04:11:00,41.0,38.0,29.86,ENE,76,0.0,2.0,88,0.00,,,0.00,,2013-09-25 09:11:00,
2013-09-25 04:43:00,41.0,37.0,29.85,SSW,200,0.0,6.0,87,0.00,,,0.00,,2013-09-25 09:43:00,
2013-09-25 05:12:00,41.0,37.0,29.85,SSW,200,0.0,5.0,87,0.00,,,0.00,,2013-09-25 10:12:00,
2013-09-25 05:43:00,41.0,37.0,29.84,SSW,200,0.0,5.0,86,0.00,,,0.00,,2013-09-25 10:43:00,
2013-09-25 06:12:00,41.0,38.0,29.84,SSW,200,0.0,3.0,88,0.00,,,0.00,,2013-09-25 11:12:00,
2013-09-25 06:43:00,40.0,37.0,29.85,SSW,200,0.0,2.0,89,0.00,,,0.00,,2013-09-25 11:43:00,
2013-09-25 07:12:00,40.0,38.0,29.88,SSW,200,1.0,3.0,91,0.00,,,0.00,,2013-09-25 12:12:00,
2013-09-25 08:11:00,40.0,38.0,29.97,SSW,200,0.0,3.0,91,0.00,,,0.00,,2013-09-25 13:11:00,
2013-09-25 09:11:00,44.0,42.0,29.98,SSW,200,2.0,3.0,91,0.00,,,0.00,,2013-09-25 14:11:00,
2013-09-25 09:43:00,54.0,50.0,29.90,SSW,200,0.0,2.0,85,0.00,,,0.00,,2013-09-25 14:43:00,
2013-09-25 10:11:00,64.0,44.0,29.86,SSW,200,0.0,3.0,49,0.00,,,0.00,,2013-09-25 15:11:00,
2013-09-25 10:22:00,64.0,44.0,29.86,SSW,200,0.0,3.0,49,0.00,,,0.00,,2013-09-25 15:22:00,
2013-09-25 10:44:00,72.0,38.0,29.83,South,171,1.0,5.0,29,0.00,,,0.00,,2013-09-25 15:44:00,
2013-09-25 10:54:00,72.0,38.0,29.83,South,171,1.0,5.0,29,0.00,,,0.00,,2013-09-25 15:54:00,
2013-09-25 11:13:00,74.0,38.0,29.83,SSE,162,4.0,7.0,27,0.00,,,0.00,,2013-09-25 16:13:00,
2013-09-25 11:53:00,75.0,37.0,29.83,SW,234,3.0,8.0,25,0.00,,,0.00,,2013-09-25 16:53:00,
2013-09-25 12:13:00,76.0,36.0,29.83,SSW,200,1.0,12.0,23,0.00,,,0.00,,2013-09-25 17:13:00,
2013-09-25 12:23:00,76.0,36.0,29.83,SSW,200,1.0,12.0,23,0.00,,,0.00,,2013-09-25 17:23:00,
2013-09-25 12:43:00,77.0,38.0,29.82,NW,306,5.0,12.0,25,0.00,,,0.00,,2013-09-25 17:43:00,
2013-09-25 12:52:00,77.0,38.0,29.82,NW,306,5.0,12.0,25,0.00,,,0.00,,2013-09-25 17:52:00,
2013-09-25 13:13:00,78.0,38.0,29.82,SW,215,5.0,10.0,24,0.00,,,0.00,,2013-09-25 18:13:00,
2013-09-25 13:22:00,78.0,38.0,29.82,SW,215,5.0,10.0,24,0.00,,,0.00,,2013-09-25 18:22:00,
2013-09-25 13:42:00,79.0,41.0,29.79,WSW,244,2.0,12.0,26,0.00,,,0.00,,2013-09-25 18:42:00,
2013-09-25 13:52:00,79.0,41.0,29.79,WSW,244,2.0,12.0,26,0.00,,,0.00,,2013-09-25 18:52:00,
2013-09-25 14:11:00,80.0,43.0,29.78,WNW,285,2.0,8.0,27,0.00,,,0.00,,2013-09-25 19:11:00,
2013-09-25 14:22:00,80.0,43.0,29.78,WNW,285,2.0,8.0,27,0.00,,,0.00,,2013-09-25 19:22:00,
2013-09-25 14:42:00,80.0,42.0,29.77,SSW,196,4.0,12.0,26,0.00,,,0.00,,2013-09-25 19:42:00,
2013-09-25 14:53:00,80.0,42.0,29.77,SSW,196,4.0,12.0,26,0.00,,,0.00,,2013-09-25 19:53:00,
2013-09-25 15:12:00,81.0,44.0,29.75,SW,232,1.0,8.0,27,0.00,,,0.00,,2013-09-25 20:12:00,
2013-09-25 15:22:00,81.0,44.0,29.75,SW,232,1.0,8.0,27,0.00,,,0.00,,2013-09-25 20:22:00,
2013-09-25 15:43:00,81.0,39.0,29.74,SSE,161,1.0,12.0,22,0.00,,,0.00,,2013-09-25 20:43:00,
2013-09-25 15:52:00,81.0,39.0,29.74,SSE,161,1.0,12.0,22,0.00,,,0.00,,2013-09-25 20:52:00,
2013-09-25 16:12:00,82.0,41.0,29.73,SW,232,5.0,16.0,23,0.00,,,0.00,,2013-09-25 21:12:00,
2013-09-25 16:22:00,82.0,41.0,29.73,SW,232,5.0,16.0,23,0.00,,,0.00,,2013-09-25 21:22:00,
2013-09-25 16:45:00,82.0,38.0,29.72,South,179,1.0,12.0,21,0.00,,,0.00,,2013-09-25 21:45:00,
2013-09-25 16:55:00,82.0,38.0,29.72,South,179,1.0,12.0,21,0.00,,,0.00,,2013-09-25 21:55:00,
2013-09-25 17:14:00,83.0,40.0,29.69,NW,312,2.0,10.0,22,0.00,,,0.00,,2013-09-25 22:14:00,
2013-09-25 17:23:00,83.0,40.0,29.69,NW,312,2.0,10.0,22,0.00,,,0.00,,2013-09-25 22:23:00,
2013-09-25 17:43:00,83.0,40.0,29.69,WSW,240,5.0,12.0,22,0.00,,,0.00,,2013-09-25 22:43:00,
2013-09-25 17:53:00,83.0,40.0,29.69,WSW,240,5.0,12.0,22,0.00,,,0.00,,2013-09-25 22:53:00,
2013-09-25 18:12:00,83.0,39.0,29.69,WSW,250,0.0,8.0,21,0.00,,,0.00,,2013-09-25 23:12:00,
2013-09-25 18:22:00,83.0,39.0,29.69,WSW,250,0.0,8.0,21,0.00,,,0.00,,2013-09-25 23:22:00,
2013-09-25 18:42:00,83.0,40.0,29.69,SW,227,0.0,8.0,22,0.00,,,0.00,,2013-09-25 23:42:00,
2013-09-25 18:53:00,83.0,40.0,29.69,SW,227,0.0,8.0,22,0.00,,,0.00,,2013-09-25 23:53:00,
2013-09-25 19:12:00,80.0,39.0,29.71,SW,222,3.0,12.0,23,0.00,,,0.00,,2013-09-26 00:12:00,
2013-09-25 19:22:00,80.0,39.0,29.71,SW,222,3.0,12.0,23,0.00,,,0.00,,2013-09-26 00:22:00,
2013-09-25 19:42:00,77.0,39.0,29.72,WNW,302,1.0,8.0,26,0.00,,,0.00,,2013-09-26 00:42:00,
2013-09-25 19:52:00,77.0,39.0,29.72,WNW,302,1.0,8.0,26,0.00,,,0.00,,2013-09-26 00:52:00,
2013-09-25 20:12:00,70.0,46.0,29.75,WNW,302,0.0,2.0,43,0.00,,,0.00,,2013-09-26 01:12:00,
2013-09-25 21:12:00,66.0,38.0,29.68,SSE,147,6.0,12.0,35,0.00,,,0.00,,2013-09-26 02:12:00,
2013-09-25 21:21:00,66.0,38.0,29.68,SSE,147,6.0,12.0,35,0.00,,,0.00,,2013-09-26 02:21:00,
2013-09-25 21:52:00,72.0,36.0,29.65,South,175,3.0,10.0,27,0.00,,,0.00,,2013-09-26 02:52:00,
2013-09-25 22:12:00,72.0,37.0,29.57,SSW,202,5.0,12.0,28,0.00,,,0.00,,2013-09-26 03:12:00,
2013-09-25 22:22:00,72.0,37.0,29.57,SSW,202,5.0,12.0,28,0.00,,,0.00,,2013-09-26 03:22:00,
2013-09-25 22:44:00,73.0,37.0,29.57,SW,222,5.0,12.0,27,0.00,,,0.00,,2013-09-26 03:44:00,
2013-09-25 22:55:00,73.0,37.0,29.57,SW,222,5.0,12.0,27,0.00,,,0.00,,2013-09-26 03:55:00,
2013-09-25 23:14:00,72.0,37.0,29.57,South,184,8.0,14.0,28,0.00,,,0.00,,2013-09-26 04:14:00,
2013-09-25 23:24:00,72.0,37.0,29.57,South,184,8.0,14.0,28,0.00,,,0.00,,2013-09-26 04:24:00,
2013-09-25 23:44:00,71.0,36.0,29.58,South,189,9.0,20.0,28,0.00,,,0.00,,2013-09-26 04:44:00,
2013-09-25 23:54:00,71.0,36.0,29.58,South,189,9.0,20.0,28,0.00,,,0.00,,2013-09-26 04:54:00,